Terminal Aerodrome Forecast
Issued by NWS Twin Cities, MN

Home | Current Version | Previous Version | Text Only | Print | Product List | Glossary Off
Versions: 1 2 3 4 5 6 7 8 9 10 11 12 13 14 15 16 17 18 19 20 21 22 23 24

298
FTUS43 KMPX 040520
TAFMSP
TAF
KMSP 040520Z 0406/0512 35011KT P6SM SKC
     FM040800 35006KT P6SM SKC
     FM041600 35014G20KT P6SM SKC
     FM050100 VRB03KT P6SM SKC=

USA.gov is the U.S. government's official web portal to all federal, state and local government web resources and services.